Latest Coastal Weather Observations for Groote Eylandt Airport

IDD60701

Issued at 1:45 am CST Saturday 25 October 2014 (issued every 10 minutes, with the page automatically refreshed every 10 minutes)

About coastal observations | Map of coastal stations | Coastal observations for NT | Marine services | Other Formats
Station Details ID: 014518 Name: GROOTE EYLANDT AIRPORT Lat: -13.97 Lon: 136.46 Height: 13.7 m
Data from the previous 72 hours. | See also: Recent months at Groote Eylandt Airport
Date/Time
CST
Temp

°C
Wind Pressure Rain
since 9am
mm
Weather Cloud Vis
km
Sea
Height
m
Swell
Dir
 
Speed
knots
Gust
knots
hPa Trend Height
m
Period
s
Dir
25/01:30am 19.7 E 3 5 1013.4 - 0.0 - - 10 - - - -
25/01:00am 19.9 CALM 0 0 1013.7 - 0.0 - - 10 - - - -
25/12:30am 20.2 ESE 0 0 1014.1 - 0.0 - - 10 - - - -
25/12:00am 20.7 ESE 0 0 1014.5 - 0.0 - - 10 - - - -
 
Date/Time
CST
Temp

°C
Wind Pressure Rain
since 9am
mm
Weather Cloud Vis
km
Sea
Height
m
Swell
Dir
 
Speed
knots
Gust
knots
hPa Trend Height
m
Period
s
Dir
24/11:30pm 21.3 CALM 0 0 1014.9 - 0.0 - - 10 - - - -
24/11:00pm 21.9 E 3 4 1015.1 - 0.0 - - 10 - - - -
24/10:30pm 23.0 E 2 3 1015.2 - 0.0 - - 10 - - - -
24/10:00pm 23.8 E 2 3 1015.2 - 0.0 - - 10 - - - -
24/09:30pm 24.4 ESE 3 5 1014.8 - 0.0 - - 10 - - - -
24/09:00pm 24.8 ESE 4 5 1014.5 - 0.0 - - 10 - - - -
24/08:30pm 25.7 ESE 5 8 1014.0 - 0.0 - - 10 - - - -
24/08:00pm 26.2 E 6 7 1013.7 - 0.0 - - 10 - - - -
24/07:30pm 26.6 E 7 9 1013.3 - 0.0 - - 10 - - - -
24/07:00pm 27.0 ENE 8 10 1012.8 - 0.0 - - 10 - - - -
24/06:30pm 27.7 ENE 8 11 1012.7 - 0.0 - - 10 - - - -
24/06:00pm 28.4 E 10 14 1012.2 - 0.0 - - 10 - - - -
24/05:30pm 29.5 E 10 14 1011.6 - 0.0 - - 10 - - - -
24/05:00pm 30.1 E 11 14 1011.5 - 0.0 - - 10 - - - -
24/04:30pm 31.3 E 9 14 1011.3 - 0.0 - - 10 - - - -
24/04:00pm 31.8 E 10 16 1011.2 - 0.0 - Partly cloudy 10 - - - -
24/03:30pm 31.7 E 11 16 1011.3 - 0.0 - - 10 - - - -
24/03:00pm 32.1 E 11 17 1011.5 - 0.0 - - 10 - - - -
24/02:30pm 32.4 E 13 17 1011.8 - 0.0 - - 10 - - - -
24/02:00pm 32.1 ENE 15 17 1012.2 - 0.0 - Partly cloudy 10 - - - -
24/01:30pm 31.3 ENE 11 16 1012.4 - 0.0 - Partly cloudy 10 - - - -
24/01:00pm 32.1 ENE 12 16 1012.8 - 0.0 - - 10 - - - -
24/12:30pm 32.7 ENE 12 17 1013.3 - 0.0 - - 10 - - - -
24/12:00pm 31.4 NE 11 19 1013.8 - 0.0 - - 10 - - - -
24/11:30am 32.1 E 11 18 1014.1 - 0.0 - - 10 - - - -
24/11:00am 33.4 ENE 11 17 1014.5 - 0.0 - - 10 - - - -
24/10:30am 31.3 NNE 11 16 1014.6 - 0.0 - - 10 - - - -
24/10:00am 31.2 E 14 18 1014.9 - 0.0 - - 10 - - - -
24/09:30am 30.6 NE 12 16 1015.0 - 0.0 - - 10 - - - -
24/09:00am 29.8 ENE 11 14 1015.0 - 0.0 - - 10 - - - -
24/08:30am 27.9 NE 10 16 1015.1 - 0.0 - - 10 - - - -
24/08:00am 27.0 NE 9 13 1015.2 - 0.0 - - 10 - - - -
24/07:30am 24.4 E 5 7 1014.9 - 0.0 - - 10 - - - -
24/07:00am 21.6 E 5 8 1014.6 - 0.0 - - 10 - - - -
24/06:30am 18.4 E 4 5 1013.8 - 0.0 - - 10 - - - -
24/06:00am 17.6 E 4 4 1013.3 - 0.0 - - 10 - - - -
24/05:30am 17.4 E 1 4 1013.0 - 0.0 - - 10 - - - -
24/05:00am 17.7 E 1 3 1012.6 - 0.0 - - 10 - - - -
24/04:30am 17.7 CALM 0 0 1012.4 - 0.0 - - 10 - - - -
24/04:16am 17.8 ESE 1 3 1012.3 - 0.0 - Partly cloudy 10 - - - -
24/04:12am 17.7 ESE 2 3 1012.3 - 0.0 - Partly cloudy 9 - - - -
24/04:00am 17.9 E 2 5 1012.3 - 0.0 - Partly cloudy 1 - - - -
24/03:56am 17.9 CALM 0 4 1012.3 - 0.0 - Partly cloudy 2 - - - -
24/03:35am 18.0 E 2 4 1012.1 - 0.0 - Partly cloudy 5 - - - -
24/03:30am 18.1 E 1 4 1012.1 - 0.0 - Partly cloudy 10 - - - -
24/03:00am 18.5 ENE 1 4 1012.2 - 0.0 - - 10 - - - -
24/02:30am 19.2 CALM 0 0 1012.7 - 0.0 - - 10 - - - -
24/02:00am 19.4 SSE 2 4 1013.0 - 0.0 - - 10 - - - -
24/01:30am 20.0 CALM 0 0 1013.5 - 0.0 - - 10 - - - -
24/01:00am 21.4 NE 3 5 1013.6 - 0.0 - - 10 - - - -
24/12:30am 21.7 CALM 0 0 1013.8 - 0.0 - - 10 - - - -
24/12:00am 22.0 E 3 3 1014.3 - 0.0 - - 10 - - - -
 
Date/Time
CST
Temp

°C
Wind Pressure Rain
since 9am
mm
Weather Cloud Vis
km
Sea
Height
m
Swell
Dir
 
Speed
knots
Gust
knots
hPa Trend Height
m
Period
s
Dir
23/11:30pm 22.1 CALM 0 0 1014.7 - 0.0 - - 10 - - - -
23/11:00pm 22.6 CALM 0 0 1015.0 - 0.0 - - 10 - - - -
23/10:30pm 23.3 CALM 0 3 1015.0 - 0.0 - - 10 - - - -
23/10:00pm 23.6 E 3 4 1014.8 - 0.0 - - 10 - - - -
23/09:30pm 23.6 ESE 3 4 1014.5 - 0.0 - - 10 - - - -
23/09:00pm 24.4 E 4 5 1014.0 - 0.0 - - 10 - - - -
23/08:30pm 25.0 E 3 4 1013.6 - 0.0 - - 10 - - - -
23/08:00pm 25.8 E 3 4 1013.5 - 0.0 - - 10 - - - -
23/07:30pm 26.9 E 4 5 1013.3 - 0.0 - - 10 - - - -
23/07:00pm 27.5 ENE 6 7 1013.0 - 0.0 - - 10 - - - -
23/06:30pm 28.1 ENE 7 9 1012.7 - 0.0 - - 10 - - - -
23/06:00pm 29.0 ENE 7 10 1012.2 - 0.0 - - 10 - - - -
23/05:30pm 29.6 E 8 11 1011.8 - 0.0 - - 10 - - - -
23/05:00pm 30.1 E 9 13 1011.5 - 0.0 - Partly cloudy 10 - - - -
23/04:30pm 30.2 SE 6 11 1011.3 - 0.0 - Partly cloudy 10 - - - -
23/04:00pm 31.2 ESE 6 9 1011.2 - 0.0 - Partly cloudy 10 - - - -
23/03:30pm 31.8 SSW 5 8 1011.4 - 0.0 - Partly cloudy 10 - - - -
23/03:00pm 31.7 SE 6 15 1011.5 - 0.0 - Mostly clear 10 - - - -
23/02:30pm 32.0 ESE 7 11 1011.5 - 0.0 - Partly cloudy 10 - - - -
23/02:00pm 31.3 SSW 3 11 1011.8 - 0.0 - Partly cloudy 10 - - - -
23/01:30pm 30.5 SE 4 8 1012.3 - 0.0 - Partly cloudy 10 - - - -
23/01:00pm 30.5 SSW 6 13 1012.8 - 0.0 - Partly cloudy 10 - - - -
23/12:30pm 32.0 SE 7 11 1013.3 - 0.0 - - 10 - - - -
23/12:00pm 32.7 SE 9 16 1013.7 - 0.0 - Mostly clear 10 - - - -
23/11:30am 31.6 ESE 10 17 1013.8 - 0.0 - Partly cloudy 10 - - - -
23/11:00am 31.4 E 5 10 1014.2 - 0.0 - Partly cloudy 10 - - - -
23/10:30am 31.6 E 9 13 1014.4 - 0.0 - Partly cloudy 10 - - - -
23/10:00am 31.2 ENE 10 15 1014.5 - 0.0 - Partly cloudy 10 - - - -
23/09:30am 30.0 NE 8 11 1014.9 - 0.0 - Partly cloudy 10 - - - -
23/09:00am 29.1 NNE 6 9 1014.8 - 0.0 - - 10 - - - -
23/08:30am 27.6 NNE 7 9 1014.9 - 0.0 - Partly cloudy 10 - - - -
23/08:00am 26.5 ENE 5 7 1014.6 - 0.0 - - 10 - - - -
23/07:30am 24.1 ESE 3 5 1014.0 - 0.0 - - 10 - - - -
23/07:00am 21.7 ESE 2 4 1013.6 - 0.0 - - 10 - - - -
23/06:30am 19.9 E 4 6 1013.5 - 0.0 - - 10 - - - -
23/06:00am 19.5 E 4 5 1013.2 - 0.0 - - 10 - - - -
23/05:30am 18.9 SE 1 4 1012.9 - 0.0 - - 10 - - - -
23/05:05am 19.1 SE 1 3 1012.8 - 0.0 - Partly cloudy 9 - - - -
23/05:01am 19.1 SE 1 3 1012.8 - 0.0 - Partly cloudy 7 - - - -
23/05:00am 19.1 SE 1 3 1012.7 - 0.0 - Partly cloudy 7 - - - -
23/04:30am 19.5 CALM 0 0 1012.5 - 0.0 - Partly cloudy 0.5 - - - -
23/04:25am 19.6 CALM 0 0 1012.4 - 0.0 - Partly cloudy 5 - - - -
23/04:22am 19.1 CALM 0 0 1012.3 - 0.0 - Partly cloudy 10 - - - -
23/04:02am 19.7 CALM 0 0 1012.3 - 0.0 - Partly cloudy 4 - - - -
23/04:01am 19.7 CALM 0 0 1012.3 - 0.0 - Partly cloudy 6 - - - -
23/04:00am 19.7 CALM 0 0 1012.3 - 0.0 - Partly cloudy 8 - - - -
23/03:30am 19.6 CALM 0 0 1012.4 - 0.0 - - 10 - - - -
23/03:00am 19.6 CALM 0 0 1012.6 - 0.0 - - 10 - - - -
23/02:30am 20.9 E 3 4 1012.9 - 0.0 - - 10 - - - -
23/02:00am 21.5 CALM 0 0 1013.0 - 0.0 - - 10 - - - -
23/01:30am 21.2 CALM 0 0 1013.3 - 0.0 - - 10 - - - -
23/01:00am 21.7 CALM 0 0 1013.9 - 0.0 - - 10 - - - -
23/12:30am 22.0 CALM 0 0 1014.3 - 0.0 - - 10 - - - -
23/12:00am 22.0 CALM 0 0 1014.6 - 0.0 - Mostly clear 10 - - - -
 
Date/Time
CST
Temp

°C
Wind Pressure Rain
since 9am
mm
Weather Cloud Vis
km
Sea
Height
m
Swell
Dir
 
Speed
knots
Gust
knots
hPa Trend Height
m
Period
s
Dir
22/11:30pm 22.0 ESE 2 6 1014.7 - 0.0 - - 10 - - - -
22/11:00pm 22.4 CALM 0 0 1014.6 - 0.0 - - 10 - - - -
22/10:30pm 22.8 CALM 0 0 1014.7 - 0.0 - - 10 - - - -
22/10:00pm 23.6 CALM 0 0 1014.7 - 0.0 - - 10 - - - -
22/09:30pm 24.1 CALM 0 0 1014.4 - 0.0 - - 10 - - - -
22/09:00pm 25.0 E 3 4 1014.0 - 0.0 - - 10 - - - -
22/08:30pm 26.3 E 3 4 1013.9 - 0.0 - - 10 - - - -
22/08:00pm 26.8 E 6 7 1013.6 - 0.0 - - 10 - - - -
22/07:30pm 27.3 ENE 8 11 1013.4 - 0.0 - - 10 - - - -
22/07:00pm 28.0 ENE 7 11 1013.1 - 0.0 - - 10 - - - -
22/06:30pm 28.9 E 7 9 1012.7 - 0.0 - - 10 - - - -
22/06:00pm 29.9 ESE 7 11 1012.4 - 0.0 - - 10 - - - -
22/05:30pm 30.8 E 9 12 1012.0 - 0.0 - - 10 - - - -
22/05:00pm 31.6 ENE 8 13 1011.8 - 0.0 - - 10 - - - -
22/04:30pm 32.2 ENE 10 14 1011.7 - 0.0 - - 10 - - - -
22/04:00pm 32.3 ENE 9 13 1011.8 - 0.0 - - 10 - - - -
22/03:30pm 32.6 E 9 13 1011.8 - 0.0 - Partly cloudy 10 - - - -
22/03:00pm 33.8 ESE 5 9 1011.9 - 0.0 - - 10 - - - -
22/02:30pm 33.0 SE 6 11 1012.0 - 0.0 - - 10 - - - -
22/02:00pm 33.3 E 9 15 1012.2 - 0.0 - - 10 - - - -
22/01:30pm 33.7 E 10 17 1012.5 - 0.0 - - 10 - - - -
22/01:00pm 33.2 SE 7 14 1013.1 - 0.0 - - 10 - - - -
22/12:30pm 31.3 W 8 14 1013.6 - 0.0 - Partly cloudy 10 - - - -
22/12:00pm 33.0 ESE 6 11 1014.1 - 0.0 - - 10 - - - -
22/11:30am 33.1 ESE 6 13 1014.6 - 0.0 - - 10 - - - -
22/11:00am 33.8 ESE 6 13 1014.6 - 0.0 - - 10 - - - -
22/10:30am 33.7 ENE 7 13 1014.8 - 0.0 - - 10 - - - -
22/10:00am 33.1 E 13 21 1015.1 - 0.0 - - 10 - - - -
22/09:30am 32.7 E 7 11 1015.2 - 0.0 - - 10 - - - -
22/09:00am 30.4 NE 3 6 1015.2 - 0.0 - - 10 - - - -
22/08:30am 28.7 NE 2 4 1015.0 - 0.0 - - 10 - - - -
22/08:00am 25.9 NE 2 4 1014.8 - 0.0 - - 10 - - - -
22/07:30am 23.3 E 3 4 1014.6 - 0.0 - - 10 - - - -
22/07:23am 22.1 E 3 4 1014.4 - 0.0 - Partly cloudy 10 - - - -
22/07:17am 21.2 E 1 3 1014.4 - 0.0 - Partly cloudy 10 - - - -
22/07:00am 19.8 E 4 5 1014.1 - 0.0 - Cloudy 0.8 - - - -
22/06:30am 18.7 CALM 0 0 1013.8 - 0.0 - Cloudy 0.3 - - - -
22/06:00am 18.6 CALM 0 0 1013.6 - 0.0 - Partly cloudy 0.5 - - - -
22/05:55am 18.5 CALM 0 0 1013.6 - 0.0 - Partly cloudy 3 - - - -
22/05:54am 18.5 CALM 0 0 1013.6 - 0.0 - Partly cloudy 5 - - - -
22/05:30am 18.8 E 2 3 1013.3 - 0.0 - - 10 - - - -
22/05:00am 19.5 CALM 0 0 1013.2 - 0.0 - - 10 - - - -
22/04:30am 20.1 CALM 0 0 1013.0 - 0.0 - - 10 - - - -
22/04:00am 20.9 CALM 0 0 1012.9 - 0.0 - - 10 - - - -
22/03:30am 21.1 CALM 0 0 1012.9 - 0.0 - - 10 - - - -
22/03:00am 21.5 CALM 0 0 1013.0 - 0.0 - - 10 - - - -
22/02:30am 22.0 CALM 0 3 1013.1 - 0.0 - - 10 - - - -
22/02:00am 22.7 SSE 1 3 1013.3 - 0.0 - - 10 - - - -

Other Formats:

Comma delimited format used in spreadsheet applications
http://www.bom.gov.au/fwo/IDD60701/IDD60701.94153.axf

JavaScript Object Notation format (JSON) in row-major order
http://www.bom.gov.au/fwo/IDD60701/IDD60701.94153.json